sensor_id;sensor_type;location;lat;lon;timestamp;pressure;altitude;pressure_sealevel;temperature;humidity
38038;BME280;23843;51.320;12.340;2024-02-15T00:01:36;100562.59;;;10.81;71.15
38038;BME280;23843;51.320;12.340;2024-02-15T00:04:02;100563.72;;;10.80;70.61
38038;BME280;23843;51.320;12.340;2024-02-15T00:06:28;100564.56;;;10.81;71.00
38038;BME280;23843;51.320;12.340;2024-02-15T00:08:53;100564.31;;;10.82;70.72
38038;BME280;23843;51.320;12.340;2024-02-15T00:11:19;100558.53;;;10.84;71.09
38038;BME280;23843;51.320;12.340;2024-02-15T00:13:46;100557.66;;;10.83;70.84
38038;BME280;23843;51.320;12.340;2024-02-15T00:16:13;100557.44;;;10.85;71.06
38038;BME280;23843;51.320;12.340;2024-02-15T00:18:38;100557.66;;;10.83;71.35
38038;BME280;23843;51.320;12.340;2024-02-15T00:21:04;100557.03;;;10.81;70.89
38038;BME280;23843;51.320;12.340;2024-02-15T00:23:29;100562.38;;;10.83;70.78
38038;BME280;23843;51.320;12.340;2024-02-15T00:25:55;100560.44;;;10.83;71.19
38038;BME280;23843;51.320;12.340;2024-02-15T00:28:20;100556.81;;;10.83;71.25
38038;BME280;23843;51.320;12.340;2024-02-15T00:30:47;100558.75;;;10.82;71.00
38038;BME280;23843;51.320;12.340;2024-02-15T00:33:13;100563.44;;;10.82;71.22
38038;BME280;23843;51.320;12.340;2024-02-15T00:35:38;100554.25;;;10.81;70.96
38038;BME280;23843;51.320;12.340;2024-02-15T00:38:03;100544.84;;;10.82;71.56
38038;BME280;23843;51.320;12.340;2024-02-15T00:40:29;100559.38;;;10.84;71.55
38038;BME280;23843;51.320;12.340;2024-02-15T00:42:54;100561.94;;;10.86;71.40
38038;BME280;23843;51.320;12.340;2024-02-15T00:45:20;100562.16;;;10.84;71.32
38038;BME280;23843;51.320;12.340;2024-02-15T00:47:47;100555.75;;;10.84;71.19
38038;BME280;23843;51.320;12.340;2024-02-15T00:50:13;100561.06;;;10.85;71.29
38038;BME280;23843;51.320;12.340;2024-02-15T00:52:38;100563.63;;;10.87;71.42
38038;BME280;23843;51.320;12.340;2024-02-15T00:55:04;100561.69;;;10.87;70.78
38038;BME280;23843;51.320;12.340;2024-02-15T00:57:30;100553.34;;;10.87;71.45
38038;BME280;23843;51.320;12.340;2024-02-15T00:59:55;100557.00;;;10.88;71.17
38038;BME280;23843;51.320;12.340;2024-02-15T01:02:20;100562.28;;;10.89;71.13
38038;BME280;23843;51.320;12.340;2024-02-15T01:04:47;100566.78;;;10.90;71.02
38038;BME280;23843;51.320;12.340;2024-02-15T01:07:13;100564.63;;;10.92;71.25
38038;BME280;23843;51.320;12.340;2024-02-15T01:09:38;100554.56;;;10.91;70.94
38038;BME280;23843;51.320;12.340;2024-02-15T01:12:04;100559.91;;;10.93;71.13
38038;BME280;23843;51.320;12.340;2024-02-15T01:14:30;100553.06;;;10.96;71.30
38038;BME280;23843;51.320;12.340;2024-02-15T01:16:55;100553.88;;;10.96;71.13
38038;BME280;23843;51.320;12.340;2024-02-15T01:19:21;100556.91;;;10.95;71.67
38038;BME280;23843;51.320;12.340;2024-02-15T01:21:47;100552.19;;;10.95;71.23
38038;BME280;23843;51.320;12.340;2024-02-15T01:24:13;100548.56;;;10.95;70.94
38038;BME280;23843;51.320;12.340;2024-02-15T01:26:38;100553.06;;;10.96;71.43
38038;BME280;23843;51.320;12.340;2024-02-15T01:29:04;100553.88;;;10.96;71.86
38038;BME280;23843;51.320;12.340;2024-02-15T01:31:29;100553.06;;;10.96;71.34
38038;BME280;23843;51.320;12.340;2024-02-15T01:33:55;100555.56;;;10.97;71.66
38038;BME280;23843;51.320;12.340;2024-02-15T01:36:21;100554.50;;;10.98;71.50
38038;BME280;23843;51.320;12.340;2024-02-15T01:38:47;100556.19;;;10.99;71.10
38038;BME280;23843;51.320;12.340;2024-02-15T01:41:13;100554.03;;;11.01;71.76
38038;BME280;23843;51.320;12.340;2024-02-15T01:43:43;100555.13;;;11.00;71.01
38038;BME280;23843;51.320;12.340;2024-02-15T01:46:09;100551.25;;;11.01;71.06
38038;BME280;23843;51.320;12.340;2024-02-15T01:48:36;100555.75;;;11.02;71.18
38038;BME280;23843;51.320;12.340;2024-02-15T01:51:02;100553.81;;;11.03;71.40
38038;BME280;23843;51.320;12.340;2024-02-15T01:53:28;100548.47;;;11.01;71.45
38038;BME280;23843;51.320;12.340;2024-02-15T01:55:55;100558.97;;;10.99;71.08
38038;BME280;23843;51.320;12.340;2024-02-15T01:58:20;100552.56;;;10.99;71.42
38038;BME280;23843;51.320;12.340;2024-02-15T02:00:47;100557.03;;;11.00;71.62
38038;BME280;23843;51.320;12.340;2024-02-15T02:03:14;100557.91;;;11.00;71.17
38038;BME280;23843;51.320;12.340;2024-02-15T02:05:40;100546.78;;;11.00;71.39
38038;BME280;23843;51.320;12.340;2024-02-15T02:08:06;100547.00;;;10.99;71.89
38038;BME280;23843;51.320;12.340;2024-02-15T02:10:32;100544.22;;;10.99;71.89
38038;BME280;23843;51.320;12.340;2024-02-15T02:13:00;100545.94;;;11.00;71.48
38038;BME280;23843;51.320;12.340;2024-02-15T02:15:26;100553.19;;;11.01;71.76
38038;BME280;23843;51.320;12.340;2024-02-15T02:17:52;100543.78;;;11.02;71.64
38038;BME280;23843;51.320;12.340;2024-02-15T02:20:17;100536.28;;;11.02;71.33
38038;BME280;23843;51.320;12.340;2024-02-15T02:22:45;100537.94;;;11.03;71.51
38038;BME280;23843;51.320;12.340;2024-02-15T02:25:13;100539.66;;;11.04;71.90
38038;BME280;23843;51.320;12.340;2024-02-15T02:27:39;100551.63;;;11.05;71.81
38038;BME280;23843;51.320;12.340;2024-02-15T02:30:05;100546.06;;;11.05;71.57
38038;BME280;23843;51.320;12.340;2024-02-15T02:32:32;100553.56;;;11.04;71.58
38038;BME280;23843;51.320;12.340;2024-02-15T02:34:57;100542.44;;;11.04;71.93
38038;BME280;23843;51.320;12.340;2024-02-15T02:37:23;100536.03;;;11.04;72.07
38038;BME280;23843;51.320;12.340;2024-02-15T02:39:48;100539.66;;;11.04;71.99
38038;BME280;23843;51.320;12.340;2024-02-15T02:42:15;100537.94;;;11.03;71.62
38038;BME280;23843;51.320;12.340;2024-02-15T02:44:41;100534.94;;;11.05;71.61
38038;BME280;23843;51.320;12.340;2024-02-15T02:47:06;100541.34;;;11.05;72.30
38038;BME280;23843;51.320;12.340;2024-02-15T02:49:32;100546.06;;;11.05;72.08
38038;BME280;23843;51.320;12.340;2024-02-15T02:51:58;100538.81;;;11.04;72.29
38038;BME280;23843;51.320;12.340;2024-02-15T02:54:23;100530.47;;;11.04;72.26
38038;BME280;23843;51.320;12.340;2024-02-15T02:56:48;100537.13;;;11.03;72.30
38038;BME280;23843;51.320;12.340;2024-02-15T02:59:15;100530.72;;;11.02;72.34
38038;BME280;23843;51.320;12.340;2024-02-15T03:01:41;100539.66;;;11.04;71.96
38038;BME280;23843;51.320;12.340;2024-02-15T03:04:09;100531.09;;;11.06;72.29
38038;BME280;23843;51.320;12.340;2024-02-15T03:06:35;100530.84;;;11.07;72.01
38038;BME280;23843;51.320;12.340;2024-02-15T03:09:00;100529.78;;;11.08;72.02
38038;BME280;23843;51.320;12.340;2024-02-15T03:11:26;100523.38;;;11.08;71.82
38038;BME280;23843;51.320;12.340;2024-02-15T03:13:51;100530.84;;;11.07;72.08
38038;BME280;23843;51.320;12.340;2024-02-15T03:16:21;100522.50;;;11.07;72.46
38038;BME280;23843;51.320;12.340;2024-02-15T03:18:47;100523.38;;;11.08;72.42
38038;BME280;23843;51.320;12.340;2024-02-15T03:21:13;100525.06;;;11.09;71.77
38038;BME280;23843;51.320;12.340;2024-02-15T03:23:38;100532.31;;;11.10;72.12
38038;BME280;23843;51.320;12.340;2024-02-15T03:26:03;100525.66;;;11.11;71.84
38038;BME280;23843;51.320;12.340;2024-02-15T03:28:29;100520.94;;;11.11;71.84
38038;BME280;23843;51.320;12.340;2024-02-15T03:30:54;100520.94;;;11.11;72.29
38038;BME280;23843;51.320;12.340;2024-02-15T03:33:21;100522.88;;;11.11;71.90
38038;BME280;23843;51.320;12.340;2024-02-15T03:35:47;100518.44;;;11.10;71.93
38038;BME280;23843;51.320;12.340;2024-02-15T03:38:12;100510.94;;;11.10;72.33
38038;BME280;23843;51.320;12.340;2024-02-15T03:40:38;100520.34;;;11.09;72.13
38038;BME280;23843;51.320;12.340;2024-02-15T03:43:03;100524.22;;;11.08;72.26
38038;BME280;23843;51.320;12.340;2024-02-15T03:45:29;100529.78;;;11.08;72.67
38038;BME280;23843;51.320;12.340;2024-02-15T03:47:54;100522.50;;;11.07;72.10
38038;BME280;23843;51.320;12.340;2024-02-15T03:50:21;100536.19;;;11.09;72.01
38038;BME280;23843;51.320;12.340;2024-02-15T03:52:47;100535.97;;;11.10;72.18
38038;BME280;23843;51.320;12.340;2024-02-15T03:55:12;100544.03;;;11.12;72.56
38038;BME280;23843;51.320;12.340;2024-02-15T03:57:38;100549.59;;;11.12;71.98
38038;BME280;23843;51.320;12.340;2024-02-15T04:00:05;100547.66;;;11.12;72.31
38038;BME280;23843;51.320;12.340;2024-02-15T04:02:31;100549.38;;;11.13;72.03
38038;BME280;23843;51.320;12.340;2024-02-15T04:04:56;100553.00;;;11.14;72.40
38038;BME280;23843;51.320;12.340;2024-02-15T04:07:23;100549.38;;;11.13;71.91
38038;BME280;23843;51.320;12.340;2024-02-15T04:09:49;100552.16;;;11.13;72.09
38038;BME280;23843;51.320;12.340;2024-02-15T04:12:14;100557.50;;;11.15;72.12
38038;BME280;23843;51.320;12.340;2024-02-15T04:14:40;100551.31;;;11.13;72.12
38038;BME280;23843;51.320;12.340;2024-02-15T04:17:05;100556.63;;;11.14;72.26
38038;BME280;23843;51.320;12.340;2024-02-15T04:19:31;100561.13;;;11.15;72.23
38038;BME280;23843;51.320;12.340;2024-02-15T04:21:56;100551.94;;;11.15;72.04
38038;BME280;23843;51.320;12.340;2024-02-15T04:24:23;100561.13;;;11.15;72.32
38038;BME280;23843;51.320;12.340;2024-02-15T04:26:49;100560.03;;;11.16;72.31
38038;BME280;23843;51.320;12.340;2024-02-15T04:29:14;100558.13;;;11.17;72.31
38038;BME280;23843;51.320;12.340;2024-02-15T04:31:40;100561.97;;;11.16;72.53
38038;BME280;23843;51.320;12.340;2024-02-15T04:34:05;100558.13;;;11.17;71.90
38038;BME280;23843;51.320;12.340;2024-02-15T04:36:31;100560.63;;;11.18;72.32
38038;BME280;23843;51.320;12.340;2024-02-15T04:38:56;100562.34;;;11.19;72.05
38038;BME280;23843;51.320;12.340;2024-02-15T04:41:23;100564.25;;;11.19;72.61
38038;BME280;23843;51.320;12.340;2024-02-15T04:43:49;100553.16;;;11.19;72.39
38038;BME280;23843;51.320;12.340;2024-02-15T04:46:14;100555.69;;;11.20;72.32
38038;BME280;23843;51.320;12.340;2024-02-15T04:48:39;100560.41;;;11.20;72.47
38038;BME280;23843;51.320;12.340;2024-02-15T04:51:05;100568.53;;;11.21;72.25
38038;BME280;23843;51.320;12.340;2024-02-15T04:53:30;100564.03;;;11.20;72.14
38038;BME280;23843;51.320;12.340;2024-02-15T04:55:56;100561.47;;;11.19;72.45
38038;BME280;23843;51.320;12.340;2024-02-15T04:58:22;100561.47;;;11.19;72.20
38038;BME280;23843;51.320;12.340;2024-02-15T05:00:48;100559.78;;;11.18;72.00
38038;BME280;23843;51.320;12.340;2024-02-15T05:03:13;100560.63;;;11.18;72.54
38038;BME280;23843;51.320;12.340;2024-02-15T05:05:39;100558.97;;;11.17;72.39
38038;BME280;23843;51.320;12.340;2024-02-15T05:08:05;100555.34;;;11.17;72.48
38038;BME280;23843;51.320;12.340;2024-02-15T05:10:31;100558.34;;;11.15;72.17
38038;BME280;23843;51.320;12.340;2024-02-15T05:12:56;100561.13;;;11.15;72.75
38038;BME280;23843;51.320;12.340;2024-02-15T05:15:23;100556.63;;;11.14;72.65
38038;BME280;23843;51.320;12.340;2024-02-15T05:17:48;100559.41;;;11.14;72.88
38038;BME280;23843;51.320;12.340;2024-02-15T05:20:15;100560.50;;;11.13;72.18
38038;BME280;23843;51.320;12.340;2024-02-15T05:22:40;100559.66;;;11.13;72.94
38038;BME280;23843;51.320;12.340;2024-02-15T05:25:06;100567.63;;;11.09;72.88
38038;BME280;23843;51.320;12.340;2024-02-15T05:27:32;100567.22;;;11.06;72.86
38038;BME280;23843;51.320;12.340;2024-02-15T05:29:57;100571.31;;;11.03;72.69
38038;BME280;23843;51.320;12.340;2024-02-15T05:32:24;100571.78;;;11.00;72.68
38038;BME280;23843;51.320;12.340;2024-02-15T05:34:49;100572.88;;;10.99;72.33
38038;BME280;23843;51.320;12.340;2024-02-15T05:37:15;100565.00;;;10.96;72.65
38038;BME280;23843;51.320;12.340;2024-02-15T05:39:40;100568.03;;;10.95;73.00
38038;BME280;23843;51.320;12.340;2024-02-15T05:42:06;100567.16;;;10.94;73.25
38038;BME280;23843;51.320;12.340;2024-02-15T05:44:31;100566.31;;;10.93;72.80
38038;BME280;23843;51.320;12.340;2024-02-15T05:46:57;100561.84;;;10.92;72.66
38038;BME280;23843;51.320;12.340;2024-02-15T05:49:24;100563.78;;;10.92;72.98
38038;BME280;23843;51.320;12.340;2024-02-15T05:51:49;100567.00;;;10.89;73.27
38038;BME280;23843;51.320;12.340;2024-02-15T05:54:15;100567.72;;;10.84;73.28
38038;BME280;23843;51.320;12.340;2024-02-15T05:56:41;100571.19;;;10.80;73.08
38038;BME280;23843;51.320;12.340;2024-02-15T05:59:07;100563.31;;;10.77;73.21
38038;BME280;23843;51.320;12.340;2024-02-15T06:01:32;100556.28;;;10.74;73.33
38038;BME280;23843;51.320;12.340;2024-02-15T06:03:58;100562.31;;;10.71;72.96
38038;BME280;23843;51.320;12.340;2024-02-15T06:06:25;100563.63;;;10.69;73.09
38038;BME280;23843;51.320;12.340;2024-02-15T06:08:50;100569.16;;;10.69;73.34
38038;BME280;23843;51.320;12.340;2024-02-15T06:11:18;100565.53;;;10.68;73.03
38038;BME280;23843;51.320;12.340;2024-02-15T06:13:44;100567.25;;;10.69;73.54
38038;BME280;23843;51.320;12.340;2024-02-15T06:16:09;100571.31;;;10.67;73.09
38038;BME280;23843;51.320;12.340;2024-02-15T06:18:35;100569.66;;;10.66;73.33
38038;BME280;23843;51.320;12.340;2024-02-15T06:21:00;100574.59;;;10.64;73.46
38038;BME280;23843;51.320;12.340;2024-02-15T06:23:27;100567.78;;;10.60;73.60
38038;BME280;23843;51.320;12.340;2024-02-15T06:25:54;100575.72;;;10.56;73.15
38038;BME280;23843;51.320;12.340;2024-02-15T06:28:20;100576.19;;;10.53;73.23
38038;BME280;23843;51.320;12.340;2024-02-15T06:30:45;100579.22;;;10.51;73.20
38038;BME280;23843;51.320;12.340;2024-02-15T06:33:11;100582.22;;;10.50;73.57
38038;BME280;23843;51.320;12.340;2024-02-15T06:35:37;100582.22;;;10.50;73.29
38038;BME280;23843;51.320;12.340;2024-02-15T06:38:02;100586.69;;;10.51;73.27
38038;BME280;23843;51.320;12.340;2024-02-15T06:40:29;100582.00;;;10.51;73.76
38038;BME280;23843;51.320;12.340;2024-02-15T06:42:55;100577.88;;;10.54;73.60
38038;BME280;23843;51.320;12.340;2024-02-15T06:45:20;100575.94;;;10.54;73.20
38038;BME280;23843;51.320;12.340;2024-02-15T06:47:46;100581.91;;;10.58;73.49
38038;BME280;23843;51.320;12.340;2024-02-15T06:50:12;100582.50;;;10.60;73.34
38038;BME280;23843;51.320;12.340;2024-02-15T06:52:38;100587.41;;;10.65;73.37
38038;BME280;23843;51.320;12.340;2024-02-15T06:55:03;100579.66;;;10.67;73.32
38038;BME280;23843;51.320;12.340;2024-02-15T06:57:30;100590.47;;;10.75;73.75
38038;BME280;23843;51.320;12.340;2024-02-15T06:59:56;100584.00;;;10.81;73.61
38038;BME280;23843;51.320;12.340;2024-02-15T07:02:21;100587.94;;;10.91;73.41
38038;BME280;23843;51.320;12.340;2024-02-15T07:04:47;100590.09;;;11.08;73.41
38038;BME280;23843;51.320;12.340;2024-02-15T07:07:12;100589.91;;;11.21;73.68
38038;BME280;23843;51.320;12.340;2024-02-15T07:09:38;100591.31;;;11.30;73.58
38038;BME280;23843;51.320;12.340;2024-02-15T07:12:04;100598.25;;;11.39;72.77
38038;BME280;23843;51.320;12.340;2024-02-15T07:14:31;100594.75;;;11.44;73.07
38038;BME280;23843;51.320;12.340;2024-02-15T07:16:56;100592.09;;;11.49;73.08
38038;BME280;23843;51.320;12.340;2024-02-15T07:19:22;100587.50;;;11.54;72.80
38038;BME280;23843;51.320;12.340;2024-02-15T07:21:47;100580.63;;;11.57;73.25
38038;BME280;23843;51.320;12.340;2024-02-15T07:24:13;100583.19;;;11.58;73.03
38038;BME280;23843;51.320;12.340;2024-02-15T07:26:38;100586.34;;;11.62;73.30
38038;BME280;23843;51.320;12.340;2024-02-15T07:29:04;100589.75;;;11.64;73.49
38038;BME280;23843;51.320;12.340;2024-02-15T07:31:31;100592.06;;;11.67;72.98
38038;BME280;23843;51.320;12.340;2024-02-15T07:33:57;100600.78;;;11.70;73.43
38038;BME280;23843;51.320;12.340;2024-02-15T07:36:23;100590.25;;;11.73;73.03
38038;BME280;23843;51.320;12.340;2024-02-15T07:38:49;100586.78;;;11.77;73.32
38038;BME280;23843;51.320;12.340;2024-02-15T07:41:14;100582.22;;;11.83;73.25
38038;BME280;23843;51.320;12.340;2024-02-15T07:43:40;100586.84;;;11.89;72.95
38038;BME280;23843;51.320;12.340;2024-02-15T07:46:05;100580.75;;;11.92;73.16
38038;BME280;23843;51.320;12.340;2024-02-15T07:48:32;100589.50;;;11.95;72.96
38038;BME280;23843;51.320;12.340;2024-02-15T07:50:57;100586.22;;;11.98;73.23
38038;BME280;23843;51.320;12.340;2024-02-15T07:53:23;100586.84;;;12.00;73.06
38038;BME280;23843;51.320;12.340;2024-02-15T07:55:48;100594.13;;;12.01;73.11
38038;BME280;23843;51.320;12.340;2024-02-15T07:58:14;100595.09;;;12.07;73.11
38038;BME280;23843;51.320;12.340;2024-02-15T08:00:39;100598.03;;;12.12;73.25
38038;BME280;23843;51.320;12.340;2024-02-15T08:03:04;100592.81;;;12.16;72.85
38038;BME280;23843;51.320;12.340;2024-02-15T08:05:31;100599.59;;;12.20;73.04
38038;BME280;23843;51.320;12.340;2024-02-15T08:07:57;100598.50;;;12.21;72.82
38038;BME280;23843;51.320;12.340;2024-02-15T08:10:22;100598.50;;;12.21;73.20
38038;BME280;23843;51.320;12.340;2024-02-15T08:12:48;100596.09;;;12.24;73.22
38038;BME280;23843;51.320;12.340;2024-02-15T08:15:13;100589.78;;;12.29;73.09
38038;BME280;23843;51.320;12.340;2024-02-15T08:17:39;100594.88;;;12.32;72.63
38038;BME280;23843;51.320;12.340;2024-02-15T08:20:06;100584.34;;;12.34;72.97
38038;BME280;23843;51.320;12.340;2024-02-15T08:22:34;100583.84;;;12.37;73.01
38038;BME280;23843;51.320;12.340;2024-02-15T08:24:59;100580.38;;;12.41;72.76
38038;BME280;23843;51.320;12.340;2024-02-15T08:27:25;100582.03;;;12.42;72.54
38038;BME280;23843;51.320;12.340;2024-02-15T08:29:50;100583.50;;;12.45;72.58
38038;BME280;23843;51.320;12.340;2024-02-15T08:32:16;100587.50;;;12.49;72.96
38038;BME280;23843;51.320;12.340;2024-02-15T08:34:41;100582.06;;;12.54;72.85
38038;BME280;23843;51.320;12.340;2024-02-15T08:37:06;100585.31;;;12.63;72.98
38038;BME280;23843;51.320;12.340;2024-02-15T08:39:34;100589.41;;;12.72;72.63
38038;BME280;23843;51.320;12.340;2024-02-15T08:42:00;100590.13;;;12.79;72.93
38038;BME280;23843;51.320;12.340;2024-02-15T08:44:25;100590.50;;;12.82;72.73
38038;BME280;23843;51.320;12.340;2024-02-15T08:46:51;100589.66;;;12.82;72.80
38038;BME280;23843;51.320;12.340;2024-02-15T08:49:16;100587.97;;;12.81;72.99
38038;BME280;23843;51.320;12.340;2024-02-15T08:51:41;100584.94;;;12.82;73.17
38038;BME280;23843;51.320;12.340;2024-02-15T08:54:07;100586.13;;;12.86;72.95
38038;BME280;23843;51.320;12.340;2024-02-15T08:56:35;100580.91;;;12.90;72.92
38038;BME280;23843;51.320;12.340;2024-02-15T08:59:00;100584.06;;;12.94;72.95
38038;BME280;23843;51.320;12.340;2024-02-15T09:01:26;100584.19;;;12.99;73.03
38038;BME280;23843;51.320;12.340;2024-02-15T09:03:51;100594.13;;;13.06;72.76
38038;BME280;23843;51.320;12.340;2024-02-15T09:06:17;100581.13;;;13.12;72.48
38038;BME280;23843;51.320;12.340;2024-02-15T09:08:43;100583.56;;;13.20;72.83
38038;BME280;23843;51.320;12.340;2024-02-15T09:11:08;100584.00;;;13.29;72.63
38038;BME280;23843;51.320;12.340;2024-02-15T09:13:35;100584.19;;;13.39;72.45
38038;BME280;23843;51.320;12.340;2024-02-15T09:16:00;100583.56;;;13.48;72.37
38038;BME280;23843;51.320;12.340;2024-02-15T09:18:26;100581.22;;;13.57;72.50
38038;BME280;23843;51.320;12.340;2024-02-15T09:20:51;100579.38;;;13.62;72.42
38038;BME280;23843;51.320;12.340;2024-02-15T09:23:17;100571.69;;;13.70;72.29
38038;BME280;23843;51.320;12.340;2024-02-15T09:25:42;100572.75;;;13.80;72.23
38038;BME280;23843;51.320;12.340;2024-02-15T09:28:08;100576.31;;;13.92;72.10
38038;BME280;23843;51.320;12.340;2024-02-15T09:30:35;100579.38;;;14.08;72.05
38038;BME280;23843;51.320;12.340;2024-02-15T09:33:00;100572.09;;;14.23;72.02
38038;BME280;23843;51.320;12.340;2024-02-15T09:35:26;100577.69;;;14.40;71.85
38038;BME280;23843;51.320;12.340;2024-02-15T09:37:51;100575.47;;;14.59;71.55
38038;BME280;23843;51.320;12.340;2024-02-15T09:40:17;100578.50;;;14.74;71.54
38038;BME280;23843;51.320;12.340;2024-02-15T09:42:44;100580.34;;;14.85;71.55
38038;BME280;23843;51.320;12.340;2024-02-15T09:45:12;100584.63;;;14.93;71.20
38038;BME280;23843;51.320;12.340;2024-02-15T09:47:39;100583.28;;;14.95;71.31
38038;BME280;23843;51.320;12.340;2024-02-15T09:50:05;100582.09;;;14.91;71.39
38038;BME280;23843;51.320;12.340;2024-02-15T09:52:32;100586.84;;;14.91;71.52
38038;BME280;23843;51.320;12.340;2024-02-15T09:54:59;100593.56;;;14.90;71.40
38038;BME280;23843;51.320;12.340;2024-02-15T09:57:26;100587.38;;;14.88;71.42
38038;BME280;23843;51.320;12.340;2024-02-15T09:59:52;100593.28;;;14.91;71.37
38038;BME280;23843;51.320;12.340;2024-02-15T10:02:19;100594.72;;;14.94;71.32
38038;BME280;23843;51.320;12.340;2024-02-15T10:04:47;100595.31;;;14.96;71.41
38038;BME280;23843;51.320;12.340;2024-02-15T10:07:13;100596.19;;;14.96;71.14
38038;BME280;23843;51.320;12.340;2024-02-15T10:09:38;100592.34;;;15.02;71.09
38038;BME280;23843;51.320;12.340;2024-02-15T10:12:05;100590.19;;;15.09;71.08
38038;BME280;23843;51.320;12.340;2024-02-15T10:14:31;100592.53;;;15.17;71.20
38038;BME280;23843;51.320;12.340;2024-02-15T10:16:56;100598.44;;;15.21;71.14
38038;BME280;23843;51.320;12.340;2024-02-15T10:19:30;100593.78;;;15.27;70.94
38038;BME280;23843;51.320;12.340;2024-02-15T10:22:05;100590.19;;;15.31;71.00
38038;BME280;23843;51.320;12.340;2024-02-15T10:24:31;100593.91;;;15.37;70.79
38038;BME280;23843;51.320;12.340;2024-02-15T10:27:00;100594.03;;;15.47;71.09
38038;BME280;23843;51.320;12.340;2024-02-15T10:29:26;100598.34;;;15.54;70.92
38038;BME280;23843;51.320;12.340;2024-02-15T10:31:53;100592.22;;;15.57;70.77
38038;BME280;23843;51.320;12.340;2024-02-15T10:34:20;100590.25;;;15.58;70.75
38038;BME280;23843;51.320;12.340;2024-02-15T10:36:45;100585.25;;;15.60;70.78
38038;BME280;23843;51.320;12.340;2024-02-15T10:39:13;100579.91;;;15.58;70.59
38038;BME280;23843;51.320;12.340;2024-02-15T10:41:39;100580.75;;;15.59;70.84
38038;BME280;23843;51.320;12.340;2024-02-15T10:44:08;100579.38;;;15.62;70.80
38038;BME280;23843;51.320;12.340;2024-02-15T10:57:46;100570.31;;;15.76;70.51
38038;BME280;23843;51.320;12.340;2024-02-15T11:00:14;100565.00;;;15.80;70.59
38038;BME280;23843;51.320;12.340;2024-02-15T11:02:42;100565.34;;;15.83;70.32
38038;BME280;23843;51.320;12.340;2024-02-15T11:05:10;100559.47;;;15.85;70.43
38038;BME280;23843;51.320;12.340;2024-02-15T11:07:37;100561.97;;;15.86;70.67
38038;BME280;23843;51.320;12.340;2024-02-15T11:10:04;100555.53;;;15.86;70.36
38038;BME280;23843;51.320;12.340;2024-02-15T11:12:30;100558.34;;;15.86;70.73
38038;BME280;23843;51.320;12.340;2024-02-15T11:14:57;100557.47;;;15.85;70.52
38038;BME280;23843;51.320;12.340;2024-02-15T11:17:45;100549.06;;;15.85;70.45
38038;BME280;23843;51.320;12.340;2024-02-15T11:20:46;100552.72;;;15.86;70.63
38038;BME280;23843;51.320;12.340;2024-02-15T11:23:23;100554.50;;;15.92;70.57
38038;BME280;23843;51.320;12.340;2024-02-15T11:25:49;100544.75;;;16.00;70.07
38038;BME280;23843;51.320;12.340;2024-02-15T11:28:39;100545.66;;;16.10;70.34
38038;BME280;23843;51.320;12.340;2024-02-15T11:31:08;100543.81;;;16.21;70.09
38038;BME280;23843;51.320;12.340;2024-02-15T11:33:35;100534.34;;;16.32;70.06
38038;BME280;23843;51.320;12.340;2024-02-15T11:36:04;100535.28;;;16.43;70.07
38038;BME280;23843;51.320;12.340;2024-02-15T11:38:30;100538.41;;;16.51;69.90
38038;BME280;23843;51.320;12.340;2024-02-15T11:41:01;100537.66;;;16.61;70.01
38038;BME280;23843;51.320;12.340;2024-02-15T11:43:49;100531.88;;;16.72;69.95
38038;BME280;23843;51.320;12.340;2024-02-15T11:46:18;100538.63;;;16.82;69.69
38038;BME280;23843;51.320;12.340;2024-02-15T11:48:43;100533.34;;;16.85;69.69
38038;BME280;23843;51.320;12.340;2024-02-15T11:51:09;100533.34;;;16.90;69.42
38038;BME280;23843;51.320;12.340;2024-02-15T11:53:34;100534.53;;;16.99;69.57
38038;BME280;23843;51.320;12.340;2024-02-15T11:56:00;100520.81;;;17.08;69.67
38038;BME280;23843;51.320;12.340;2024-02-15T11:58:26;100525.06;;;17.21;69.48
38038;BME280;23843;51.320;12.340;2024-02-15T12:00:51;100524.53;;;17.34;68.90
38038;BME280;23843;51.320;12.340;2024-02-15T12:03:20;100527.34;;;17.39;68.92
38038;BME280;23843;51.320;12.340;2024-02-15T12:05:47;100521.47;;;17.40;68.98
38038;BME280;23843;51.320;12.340;2024-02-15T12:08:14;100518.66;;;17.40;68.57
38038;BME280;23843;51.320;12.340;2024-02-15T12:10:39;100523.44;;;17.35;68.93
38038;BME280;23843;51.320;12.340;2024-02-15T12:13:05;100518.94;;;17.34;68.95
38038;BME280;23843;51.320;12.340;2024-02-15T12:15:31;100512.72;;;17.32;68.71
38038;BME280;23843;51.320;12.340;2024-02-15T12:18:13;100511.31;;;17.24;68.90
38038;BME280;23843;51.320;12.340;2024-02-15T12:20:40;100511.88;;;17.16;68.94
38038;BME280;23843;51.320;12.340;2024-02-15T12:23:06;100502.56;;;17.10;68.79
38038;BME280;23843;51.320;12.340;2024-02-15T12:25:31;100500.00;;;17.04;69.20
38038;BME280;23843;51.320;12.340;2024-02-15T12:27:59;100507.56;;;16.98;68.99
38038;BME280;23843;51.320;12.340;2024-02-15T12:30:26;100501.91;;;16.88;68.87
38038;BME280;23843;51.320;12.340;2024-02-15T12:33:09;100506.06;;;16.81;69.44
38038;BME280;23843;51.320;12.340;2024-02-15T12:35:34;100507.16;;;16.74;69.29
38038;BME280;23843;51.320;12.340;2024-02-15T12:38:04;100502.06;;;16.66;69.36
38038;BME280;23843;51.320;12.340;2024-02-15T12:40:31;100508.13;;;16.53;69.08
38038;BME280;23843;51.320;12.340;2024-02-15T12:42:57;100496.88;;;16.43;69.36
38038;BME280;23843;51.320;12.340;2024-02-15T12:45:25;100488.38;;;16.33;69.26
38038;BME280;23843;51.320;12.340;2024-02-15T12:47:51;100485.56;;;16.28;69.63